Time;durP1;ratioP1;P1;durP2;ratioP2;P2;SDS_P1;SDS_P2;PMS_P1;PMS_P2;Temp;Humidity;BMP_temperature;BMP_pressure;BME280_temperature;BME280_humidity;BME280_pressure;Samples;Min_cycle;Max_cycle;Signal;HPM_P1;HPM_P2
2022/02/07 00:02:03;;;;;;;1.47;0.90;;;;;;;;;;5076156;28;20531;-74
2022/02/07 00:04:34;;;;;;;5.87;1.23;;;;;;;;;;5071981;28;20521;-74
2022/02/07 00:07:01;;;;;;;9.53;1.77;;;;;;;;;;5078480;28;20891;-74
2022/02/07 00:09:30;;;;;;;2.17;1.07;;;;;;;;;;5079499;28;20456;-74
2022/02/07 00:11:57;;;;;;;4.83;1.63;;;;;;;;;;5078539;28;20445;-73
2022/02/07 00:14:24;;;;;;;3.33;0.60;;;;;;;;;;5077800;28;20488;-73
2022/02/07 00:16:54;;;;;;;3.03;0.73;;;;;;;;;;5078507;28;20512;-74
2022/02/07 00:19:26;;;;;;;12.30;1.23;;;;;;;;;;5077656;28;20812;-73
2022/02/07 00:22:04;;;;;;;2.20;0.70;;;;;;;;;;5069908;28;20554;-73
2022/02/07 00:24:33;;;;;;;8.93;1.40;;;;;;;;;;5078255;28;20483;-74
2022/02/07 00:27:00;;;;;;;2.77;0.97;;;;;;;;;;5076879;28;20452;-73
2022/02/07 00:29:27;;;;;;;3.53;0.70;;;;;;;;;;5078431;28;20464;-73
2022/02/07 00:31:54;;;;;;;7.27;1.00;;;;;;;;;;5078304;28;20583;-73
2022/02/07 00:34:21;;;;;;;1.37;0.60;;;;;;;;;;5079335;28;20468;-73
2022/02/07 00:36:48;;;;;;;1.77;0.60;;;;;;;;;;5098447;28;20510;-73
2022/02/07 00:39:22;;;;;;;1.60;0.90;;;;;;;;;;5097936;28;20467;-73
2022/02/07 00:41:55;;;;;;;1.50;0.80;;;;;;;;;;5097406;28;20451;-74
2022/02/07 00:44:22;;;;;;;4.73;0.70;;;;;;;;;;5078732;28;20554;-74
2022/02/07 00:46:56;;;;;;;3.93;1.17;;;;;;;;;;5078576;28;20445;-73
2022/02/07 00:49:24;;;;;;;1.40;0.70;;;;;;;;;;5077932;28;20500;-73
2022/02/07 00:51:51;;;;;;;3.10;0.80;;;;;;;;;;5078179;28;20449;-73
2022/02/07 00:54:18;;;;;;;4.83;1.40;;;;;;;;;;5078439;28;20466;-73
2022/02/07 00:56:48;;;;;;;1.47;0.83;;;;;;;;;;5079108;28;20483;-74
2022/02/07 00:59:16;;;;;;;1.20;0.70;;;;;;;;;;5078299;28;20489;-74
2022/02/07 01:01:44;;;;;;;3.83;0.60;;;;;;;;;;5078189;28;20516;-73
2022/02/07 01:04:11;;;;;;;5.07;0.90;;;;;;;;;;5078226;28;20868;-73
2022/02/07 01:06:40;;;;;;;2.13;0.70;;;;;;;;;;5077686;28;20456;-74
2022/02/07 01:09:14;;;;;;;3.33;1.23;;;;;;;;;;5076838;28;20558;-74
2022/02/07 01:11:56;;;;;;;2.07;0.50;;;;;;;;;;5077445;28;20495;-74
2022/02/07 01:14:36;;;;;;;2.50;0.80;;;;;;;;;;5077299;28;20472;-74
2022/02/07 01:48:04;;;;;;;4.13;0.67;;;;;;;;;;5077218;28;20890;-74
2022/02/07 01:53:27;;;;;;;5.73;1.20;;;;;;;;;;5076861;28;20434;-74
2022/02/07 01:55:57;;;;;;;4.27;1.43;;;;;;;;;;5076828;28;20484;-74
2022/02/07 01:58:24;;;;;;;3.07;0.83;;;;;;;;;;5076484;28;20452;-74
2022/02/07 02:00:51;;;;;;;3.83;1.20;;;;;;;;;;5076034;28;20560;-75
2022/02/07 02:03:19;;;;;;;3.37;0.93;;;;;;;;;;5075868;28;20874;-75
2022/02/07 02:05:46;;;;;;;4.37;1.37;;;;;;;;;;5076409;28;20514;-75
2022/02/07 02:08:20;;;;;;;5.23;1.30;;;;;;;;;;5076650;28;20488;-74
2022/02/07 02:10:51;;;;;;;7.83;2.03;;;;;;;;;;5076343;28;20452;-74
2022/02/07 02:13:22;;;;;;;5.07;1.50;;;;;;;;;;5076189;28;20452;-74
2022/02/07 02:15:55;;;;;;;5.63;0.93;;;;;;;;;;5076424;28;20871;-75
2022/02/07 02:35:35;;;;;;;3.03;2.23;;;;;;;;;;5076121;28;20510;-74
2022/02/07 02:38:07;;;;;;;4.87;1.40;;;;;;;;;;5076871;28;20455;-74
2022/02/07 02:46:05;;;;;;;8.90;1.20;;;;;;;;;;5075824;28;20887;-74
2022/02/07 02:48:41;;;;;;;4.27;1.07;;;;;;;;;;5076001;28;20448;-75
2022/02/07 02:51:09;;;;;;;4.97;1.30;;;;;;;;;;5075731;28;20456;-74
2022/02/07 02:53:36;;;;;;;10.77;2.13;;;;;;;;;;5076460;28;20452;-74
2022/02/07 02:56:04;;;;;;;9.83;1.33;;;;;;;;;;5076175;28;20527;-74
2022/02/07 02:58:32;;;;;;;3.87;1.33;;;;;;;;;;5075193;28;20753;-75
2022/02/07 03:00:59;;;;;;;5.67;1.10;;;;;;;;;;5075621;28;20463;-75
2022/02/07 03:03:26;;;;;;;6.57;1.33;;;;;;;;;;5076140;28;20449;-74
2022/02/07 03:05:53;;;;;;;2.43;1.57;;;;;;;;;;5076398;28;20542;-75
2022/02/07 03:08:21;;;;;;;3.47;1.63;;;;;;;;;;5076119;28;20453;-74
2022/02/07 03:11:00;;;;;;;9.63;1.77;;;;;;;;;;5076067;28;20452;-74
2022/02/07 03:13:45;;;;;;;7.20;1.40;;;;;;;;;;5076464;28;20531;-74
2022/02/07 03:19:04;;;;;;;4.53;1.10;;;;;;;;;;5075471;28;20471;-74
2022/02/07 03:21:31;;;;;;;4.50;1.40;;;;;;;;;;5075761;28;20472;-74
2022/02/07 03:23:58;;;;;;;5.70;1.17;;;;;;;;;;5076007;28;20717;-75
2022/02/07 03:26:25;;;;;;;5.63;1.67;;;;;;;;;;5076114;28;20752;-76
2022/02/07 03:28:53;;;;;;;4.43;1.20;;;;;;;;;;5074807;28;20487;-75
2022/02/07 03:31:20;;;;;;;4.17;1.30;;;;;;;;;;5075636;28;20970;-75
2022/02/07 03:33:50;;;;;;;4.20;1.27;;;;;;;;;;5077017;28;20868;-74
2022/02/07 03:36:18;;;;;;;6.27;1.80;;;;;;;;;;5078362;28;20534;-74
2022/02/07 03:38:46;;;;;;;5.93;1.57;;;;;;;;;;5082622;28;20460;-74
2022/02/07 03:41:13;;;;;;;6.33;1.23;;;;;;;;;;5078923;28;20775;-74
2022/02/07 03:43:40;;;;;;;5.53;1.93;;;;;;;;;;5077590;28;20721;-74
2022/02/07 03:46:08;;;;;;;6.97;1.30;;;;;;;;;;5078281;28;20860;-74
2022/02/07 03:48:38;;;;;;;4.47;1.33;;;;;;;;;;5078199;28;20747;-74
2022/02/07 03:51:05;;;;;;;5.30;1.27;;;;;;;;;;5078326;28;20444;-74
2022/02/07 03:53:32;;;;;;;5.63;0.70;;;;;;;;;;5078775;28;20923;-74
2022/02/07 03:55:59;;;;;;;6.67;0.70;;;;;;;;;;5078651;28;20488;-74
2022/02/07 03:58:26;;;;;;;2.63;0.80;;;;;;;;;;5078817;28;20527;-74
2022/02/07 04:00:54;;;;;;;1.50;1.07;;;;;;;;;;5077698;28;20448;-74
2022/02/07 04:03:26;;;;;;;2.90;0.83;;;;;;;;;;5078183;28;20737;-74
2022/02/07 04:05:56;;;;;;;4.03;1.30;;;;;;;;;;5077940;28;20523;-74
2022/02/07 04:08:28;;;;;;;3.63;1.40;;;;;;;;;;5077829;28;20478;-75
2022/02/07 04:11:01;;;;;;;3.90;0.90;;;;;;;;;;5077922;28;20884;-74
2022/02/07 04:13:32;;;;;;;2.30;0.50;;;;;;;;;;5078468;28;20484;-74
2022/02/07 04:15:59;;;;;;;3.10;0.70;;;;;;;;;;5077852;28;20792;-75
2022/02/07 04:18:31;;;;;;;11.07;1.10;;;;;;;;;;5077146;28;20444;-75
2022/02/07 04:20:58;;;;;;;6.63;1.40;;;;;;;;;;5075287;28;20769;-74
2022/02/07 04:23:25;;;;;;;2.60;1.07;;;;;;;;;;5078004;28;20449;-74
2022/02/07 04:25:52;;;;;;;3.50;0.93;;;;;;;;;;5075960;28;20868;-73
2022/02/07 04:28:19;;;;;;;7.40;1.30;;;;;;;;;;5078524;28;20506;-75
2022/02/07 04:30:46;;;;;;;4.00;1.90;;;;;;;;;;5075925;28;20452;-74
2022/02/07 04:33:16;;;;;;;9.60;1.33;;;;;;;;;;5077085;28;20554;-74
2022/02/07 04:35:44;;;;;;;7.33;1.90;;;;;;;;;;5076558;28;20556;-73
2022/02/07 04:38:11;;;;;;;2.10;0.87;;;;;;;;;;5077137;28;20445;-74
2022/02/07 04:40:38;;;;;;;9.47;1.30;;;;;;;;;;5074471;28;20490;-74
2022/02/07 04:43:08;;;;;;;9.10;1.30;;;;;;;;;;5078003;28;20532;-74
2022/02/07 04:45:52;;;;;;;6.87;1.50;;;;;;;;;;5077160;28;20457;-74
2022/02/07 04:51:37;;;;;;;4.00;1.00;;;;;;;;;;5062274;28;20433;-74
2022/02/07 04:54:33;;;;;;;5.37;1.13;;;;;;;;;;5074529;28;20440;-74
2022/02/07 04:57:08;;;;;;;12.50;0.93;;;;;;;;;;5074797;28;20492;-74
2022/02/07 04:59:44;;;;;;;10.33;1.47;;;;;;;;;;5076903;28;20440;-74
2022/02/07 05:02:18;;;;;;;9.20;1.67;;;;;;;;;;5076335;28;20448;-74
2022/02/07 05:04:51;;;;;;;15.23;1.50;;;;;;;;;;5076489;28;20801;-74
2022/02/07 05:15:59;;;;;;;3.43;0.90;;;;;;;;;;5070275;28;20489;-74
2022/02/07 05:18:30;;;;;;;2.93;0.80;;;;;;;;;;5076998;28;20551;-74
2022/02/07 05:20:57;;;;;;;4.37;1.33;;;;;;;;;;5077041;28;20933;-75
2022/02/07 05:23:25;;;;;;;1.90;1.20;;;;;;;;;;5077831;28;20540;-74
2022/02/07 05:25:54;;;;;;;7.00;1.50;;;;;;;;;;5077751;28;20483;-74
2022/02/07 05:28:21;;;;;;;9.63;1.10;;;;;;;;;;5077297;28;20469;-74
2022/02/07 05:30:47;;;;;;;9.97;1.17;;;;;;;;;;5077756;28;20444;-74
2022/02/07 05:33:14;;;;;;;6.20;1.80;;;;;;;;;;5076867;28;20456;-75
2022/02/07 05:35:41;;;;;;;2.60;0.90;;;;;;;;;;5077047;28;20451;-74
2022/02/07 05:38:09;;;;;;;3.07;1.03;;;;;;;;;;5076748;28;20492;-74
2022/02/07 05:40:42;;;;;;;7.57;1.10;;;;;;;;;;5076877;28;20443;-74
2022/02/07 05:43:09;;;;;;;5.10;0.80;;;;;;;;;;5075587;28;20543;-74
2022/02/07 05:45:36;;;;;;;7.77;1.30;;;;;;;;;;5075853;28;20713;-74
2022/02/07 05:48:06;;;;;;;2.13;0.70;;;;;;;;;;5074858;28;20459;-74
2022/02/07 05:50:33;;;;;;;1.20;0.60;;;;;;;;;;5076083;28;20738;-74
2022/02/07 05:53:00;;;;;;;10.53;2.50;;;;;;;;;;5076205;28;20476;-74
2022/02/07 05:55:27;;;;;;;3.70;0.80;;;;;;;;;;5073727;28;20849;-74
2022/02/07 05:57:55;;;;;;;5.27;1.60;;;;;;;;;;5072617;28;20931;-74
2022/02/07 06:00:25;;;;;;;5.87;0.83;;;;;;;;;;5075787;28;20490;-73
2022/02/07 06:02:52;;;;;;;6.07;1.60;;;;;;;;;;5075967;28;20547;-74
2022/02/07 06:05:20;;;;;;;12.90;1.30;;;;;;;;;;5075644;28;20431;-74
2022/02/07 06:07:48;;;;;;;13.90;1.80;;;;;;;;;;5074636;28;20452;-74
2022/02/07 06:10:15;;;;;;;7.93;1.07;;;;;;;;;;5075099;28;20729;-74
2022/02/07 06:12:44;;;;;;;6.93;2.20;;;;;;;;;;5074849;28;20453;-74
2022/02/07 06:15:12;;;;;;;6.10;2.20;;;;;;;;;;5074237;28;20502;-74
2022/02/07 06:17:40;;;;;;;9.33;1.00;;;;;;;;;;5073074;28;20897;-74
2022/02/07 06:20:07;;;;;;;3.80;0.97;;;;;;;;;;5074170;28;20433;-73
2022/02/07 06:22:34;;;;;;;8.73;1.63;;;;;;;;;;5073128;28;20944;-74
2022/02/07 06:25:03;;;;;;;4.30;1.33;;;;;;;;;;5074642;28;20465;-74
2022/02/07 06:27:30;;;;;;;12.77;1.40;;;;;;;;;;5074793;28;20459;-74
2022/02/07 06:29:57;;;;;;;4.43;1.10;;;;;;;;;;5072794;28;21037;-74
2022/02/07 06:32:26;;;;;;;4.73;1.50;;;;;;;;;;5073955;28;20449;-74
2022/02/07 06:34:53;;;;;;;8.70;1.50;;;;;;;;;;5072709;28;20461;-74
2022/02/07 06:37:23;;;;;;;4.43;1.13;;;;;;;;;;5072038;28;20479;-74
2022/02/07 06:39:50;;;;;;;3.73;1.20;;;;;;;;;;5073752;28;20513;-74
2022/02/07 06:42:18;;;;;;;4.63;0.90;;;;;;;;;;5072892;28;20801;-74
2022/02/07 06:44:45;;;;;;;7.93;1.73;;;;;;;;;;5072049;28;20458;-74
2022/02/07 06:47:14;;;;;;;4.30;0.93;;;;;;;;;;5071400;28;20467;-74
2022/02/07 06:49:42;;;;;;;5.90;1.63;;;;;;;;;;5071680;28;20449;-74
2022/02/07 06:52:09;;;;;;;15.23;2.33;;;;;;;;;;5071824;28;20444;-74
2022/02/07 06:54:39;;;;;;;6.10;1.50;;;;;;;;;;5073277;28;20572;-74
2022/02/07 06:57:06;;;;;;;9.30;2.77;;;;;;;;;;5072003;28;20479;-74
2022/02/07 06:59:40;;;;;;;3.17;1.20;;;;;;;;;;5072669;28;20476;-74
2022/02/07 07:02:08;;;;;;;7.43;1.57;;;;;;;;;;5074373;28;20448;-74
2022/02/07 07:04:35;;;;;;;2.67;1.50;;;;;;;;;;5073649;28;20482;-74
2022/02/07 07:07:03;;;;;;;8.30;1.67;;;;;;;;;;5074986;28;20456;-74
2022/02/07 07:09:31;;;;;;;7.83;2.07;;;;;;;;;;5077439;28;20823;-74
2022/02/07 07:12:03;;;;;;;5.03;1.33;;;;;;;;;;5076816;28;20463;-74
2022/02/07 07:14:40;;;;;;;6.03;1.40;;;;;;;;;;5076307;28;20819;-74
2022/02/07 07:17:10;;;;;;;14.00;2.10;;;;;;;;;;5071817;28;20522;-73
2022/02/07 07:19:39;;;;;;;8.40;1.83;;;;;;;;;;5075573;28;20447;-74
2022/02/07 07:22:08;;;;;;;12.90;2.13;;;;;;;;;;5072544;28;20451;-74
2022/02/07 07:24:36;;;;;;;7.80;1.67;;;;;;;;;;5075818;28;20460;-74
2022/02/07 07:27:03;;;;;;;7.97;1.40;;;;;;;;;;5076442;28;20456;-73
2022/02/07 07:29:35;;;;;;;4.40;1.30;;;;;;;;;;5075333;28;20459;-74
2022/02/07 07:32:04;;;;;;;6.50;2.00;;;;;;;;;;5070870;28;20453;-74
2022/02/07 07:34:32;;;;;;;12.07;3.47;;;;;;;;;;5074344;28;20448;-74
2022/02/07 07:36:59;;;;;;;6.67;1.60;;;;;;;;;;5071910;28;20614;-73
2022/02/07 07:39:27;;;;;;;8.33;2.20;;;;;;;;;;5075519;28;20904;-73
2022/02/07 07:41:54;;;;;;;3.70;1.50;;;;;;;;;;5077477;28;20753;-73
2022/02/07 07:44:25;;;;;;;7.73;1.00;;;;;;;;;;5065805;28;20524;-73
2022/02/07 07:47:05;;;;;;;14.00;5.07;;;;;;;;;;5056671;28;20461;-74
2022/02/07 07:49:38;;;;;;;13.87;3.13;;;;;;;;;;5064992;28;20452;-74
2022/02/07 07:52:10;;;;;;;9.27;2.30;;;;;;;;;;5073093;28;20475;-72
2022/02/07 08:02:56;;;;;;;6.20;1.17;;;;;;;;;;4978760;28;20503;-74
2022/02/07 08:05:40;;;;;;;9.77;2.40;;;;;;;;;;4975442;28;20452;-75
2022/02/07 08:08:18;;;;;;;12.83;2.00;;;;;;;;;;5048392;28;20730;-74
2022/02/07 08:10:54;;;;;;;15.87;1.67;;;;;;;;;;5055895;28;20452;-74
2022/02/07 08:13:23;;;;;;;8.03;3.07;;;;;;;;;;5058103;28;20460;-74
2022/02/07 08:15:51;;;;;;;14.50;2.57;;;;;;;;;;5057581;28;20456;-75
2022/02/07 08:18:20;;;;;;;11.07;2.17;;;;;;;;;;5055860;28;20517;-74
2022/02/07 08:20:47;;;;;;;13.60;2.30;;;;;;;;;;5067343;28;20457;-74
2022/02/07 08:23:17;;;;;;;4.93;2.00;;;;;;;;;;5056014;28;20461;-74
2022/02/07 08:26:02;;;;;;;11.03;2.60;;;;;;;;;;5060680;28;20456;-74
2022/02/07 08:28:32;;;;;;;11.63;2.60;;;;;;;;;;5053822;28;20470;-74
2022/02/07 08:30:59;;;;;;;12.17;2.63;;;;;;;;;;5078371;28;20456;-74
2022/02/07 08:33:26;;;;;;;8.97;2.53;;;;;;;;;;5094253;28;20482;-74
2022/02/07 08:35:53;;;;;;;12.93;2.70;;;;;;;;;;5069214;28;20876;-74
2022/02/07 08:38:26;;;;;;;6.07;1.03;;;;;;;;;;5074975;28;20487;-74
2022/02/07 08:40:53;;;;;;;9.27;3.17;;;;;;;;;;5075927;28;20463;-74
2022/02/07 08:43:25;;;;;;;14.33;2.10;;;;;;;;;;5082627;28;20553;-74
2022/02/07 08:45:53;;;;;;;10.57;1.67;;;;;;;;;;5095203;28;20479;-73
2022/02/07 08:48:29;;;;;;;10.03;2.87;;;;;;;;;;5096154;28;20451;-74
2022/02/07 08:54:00;;;;;;;13.63;2.70;;;;;;;;;;5095344;28;20524;-74
2022/02/07 08:56:40;;;;;;;13.67;2.33;;;;;;;;;;5073571;28;20485;-74
2022/02/07 09:02:21;;;;;;;4.87;2.07;;;;;;;;;;5054779;28;20461;-72
2022/02/07 09:04:55;;;;;;;8.90;1.90;;;;;;;;;;5056648;28;20468;-73
2022/02/07 09:07:26;;;;;;;6.87;1.50;;;;;;;;;;5056522;28;20460;-74
2022/02/07 09:09:57;;;;;;;9.20;2.30;;;;;;;;;;5058720;28;20464;-75
2022/02/07 09:12:24;;;;;;;6.57;1.50;;;;;;;;;;5076014;28;20876;-74
2022/02/07 09:14:59;;;;;;;6.13;1.40;;;;;;;;;;5076125;28;20849;-74
2022/02/07 09:17:27;;;;;;;5.73;1.30;;;;;;;;;;5075419;28;20767;-74
2022/02/07 09:19:55;;;;;;;8.90;2.67;;;;;;;;;;5075559;28;20891;-74
2022/02/07 09:22:22;;;;;;;18.50;2.60;;;;;;;;;;5075832;28;20437;-74
2022/02/07 09:24:49;;;;;;;6.40;1.80;;;;;;;;;;5075997;28;20780;-75
2022/02/07 09:27:19;;;;;;;12.47;3.43;;;;;;;;;;5070464;28;20857;-74
2022/02/07 09:29:46;;;;;;;14.53;2.13;;;;;;;;;;5069283;28;20961;-74
2022/02/07 09:32:13;;;;;;;13.13;2.90;;;;;;;;;;5072047;28;20433;-74
2022/02/07 09:34:41;;;;;;;11.13;2.27;;;;;;;;;;5066667;28;20620;-74
2022/02/07 09:37:08;;;;;;;9.77;3.87;;;;;;;;;;5055386;28;20489;-74
2022/02/07 09:39:35;;;;;;;11.90;2.70;;;;;;;;;;5063394;28;20585;-74
2022/02/07 09:42:03;;;;;;;12.03;3.57;;;;;;;;;;5066468;28;20460;-75
2022/02/07 09:44:41;;;;;;;17.23;2.70;;;;;;;;;;5075626;28;20586;-78
2022/02/07 09:47:10;;;;;;;9.83;3.10;;;;;;;;;;5071260;28;20447;-75
2022/02/07 09:49:56;;;;;;;8.23;2.13;;;;;;;;;;5056590;28;20707;-75
2022/02/07 09:52:30;;;;;;;13.93;2.63;;;;;;;;;;5059030;28;20469;-75
2022/02/07 09:55:08;;;;;;;11.33;2.70;;;;;;;;;;5055078;28;20461;-74
2022/02/07 09:57:50;;;;;;;18.80;3.73;;;;;;;;;;5055043;28;20562;-73
2022/02/07 10:00:19;;;;;;;11.70;1.93;;;;;;;;;;5060587;28;20456;-73
2022/02/07 10:03:01;;;;;;;8.63;2.83;;;;;;;;;;5074810;28;20476;-73
2022/02/07 10:05:29;;;;;;;8.53;3.03;;;;;;;;;;5074019;28;20488;-74
2022/02/07 10:08:35;;;;;;;9.60;2.07;;;;;;;;;;5075135;28;20449;-74
2022/02/07 10:11:35;;;;;;;4.93;1.50;;;;;;;;;;5072463;28;20449;-74
2022/02/07 10:14:08;;;;;;;8.33;1.67;;;;;;;;;;5056155;28;20880;-73
2022/02/07 10:16:48;;;;;;;10.47;2.10;;;;;;;;;;5072545;28;20488;-73
2022/02/07 10:38:42;;;;;;;8.80;2.80;;;;;;;;;;5064023;28;20522;-72
2022/02/07 10:41:26;;;;;;;15.93;4.60;;;;;;;;;;5085203;28;20444;-72
2022/02/07 10:44:03;;;;;;;103.57;61.53;;;;;;;;;;5075072;28;20554;-72
2022/02/07 10:46:36;;;;;;;4.70;2.10;;;;;;;;;;5094025;28;20463;-72
2022/02/07 10:49:18;;;;;;;8.53;1.80;;;;;;;;;;5081718;28;20514;-72
2022/02/07 10:51:58;;;;;;;106.77;39.47;;;;;;;;;;5067628;28;20555;-73
2022/02/07 10:54:31;;;;;;;11.37;3.73;;;;;;;;;;5075231;28;20452;-73
2022/02/07 10:57:08;;;;;;;2.83;1.03;;;;;;;;;;5070468;28;20484;-72
2022/02/07 10:59:47;;;;;;;8.43;2.00;;;;;;;;;;5071793;28;20448;-72
2022/02/07 11:05:15;;;;;;;3.47;1.30;;;;;;;;;;5065888;28;20787;-72
2022/02/07 11:07:42;;;;;;;29.27;3.60;;;;;;;;;;5069721;28;20452;-72
2022/02/07 11:10:27;;;;;;;5.60;1.97;;;;;;;;;;5071884;28;20471;-72
2022/02/07 11:13:25;;;;;;;16.37;2.63;;;;;;;;;;5073680;28;20483;-73
2022/02/07 11:16:09;;;;;;;24.33;3.90;;;;;;;;;;5074087;28;20902;-72
2022/02/07 11:18:57;;;;;;;8.77;1.80;;;;;;;;;;5071434;28;20481;-73
2022/02/07 11:21:37;;;;;;;5.00;1.40;;;;;;;;;;5068622;28;20461;-71
2022/02/07 11:24:37;;;;;;;8.07;2.80;;;;;;;;;;5071574;28;20524;-72
2022/02/07 11:27:23;;;;;;;5.47;2.60;;;;;;;;;;5073951;28;20443;-73
2022/02/07 11:29:55;;;;;;;12.60;7.33;;;;;;;;;;5060989;28;20448;-74
2022/02/07 11:32:48;;;;;;;39.67;23.50;;;;;;;;;;5077509;28;20462;-73
2022/02/07 11:35:17;;;;;;;108.03;68.37;;;;;;;;;;5075521;28;20436;-74
2022/02/07 11:37:50;;;;;;;6.27;3.23;;;;;;;;;;5074098;28;20549;-73
2022/02/07 11:40:40;;;;;;;5.57;2.70;;;;;;;;;;5074753;28;20462;-73
2022/02/07 11:43:12;;;;;;;11.10;3.07;;;;;;;;;;5068164;28;20526;-73
2022/02/07 11:45:54;;;;;;;7.93;2.40;;;;;;;;;;5070919;28;20440;-73
2022/02/07 11:48:51;;;;;;;5.60;2.27;;;;;;;;;;5070088;28;20457;-73
2022/02/07 11:51:25;;;;;;;23.03;13.00;;;;;;;;;;5066596;28;20484;-73
2022/02/07 11:53:53;;;;;;;5.80;5.30;;;;;;;;;;5077362;28;20459;-73
2022/02/07 11:56:34;;;;;;;7.23;1.77;;;;;;;;;;5072308;28;20456;-73
2022/02/07 11:59:28;;;;;;;80.03;65.50;;;;;;;;;;5064469;28;20532;-72
2022/02/07 12:02:00;;;;;;;214.37;98.10;;;;;;;;;;5074295;28;20543;-71
2022/02/07 12:04:32;;;;;;;29.10;27.20;;;;;;;;;;5075402;28;20538;-72
2022/02/07 12:07:21;;;;;;;5.17;1.97;;;;;;;;;;5086350;28;20482;-72
2022/02/07 12:10:35;;;;;;;2.50;1.13;;;;;;;;;;5069567;28;20453;-71
2022/02/07 12:13:25;;;;;;;9.47;2.20;;;;;;;;;;5013589;28;20450;-73
2022/02/07 12:15:58;;;;;;;337.73;104.68;;;;;;;;;;5067776;28;20524;-72
2022/02/07 12:18:30;;;;;;;291.75;95.28;;;;;;;;;;5076208;28;20218;-72
2022/02/07 12:21:16;;;;;;;309.67;99.18;;;;;;;;;;5061591;28;20199;-75
2022/02/07 12:23:43;;;;;;;350.40;98.90;;;;;;;;;;5045729;28;20206;-74
2022/02/07 12:26:15;;;;;;;310.85;126.00;;;;;;;;;;5060052;28;20612;-73
2022/02/07 12:28:56;;;;;;;331.77;108.47;;;;;;;;;;5074932;28;20229;-73
2022/02/07 12:31:24;;;;;;;333.98;92.32;;;;;;;;;;5075478;28;20271;-72
2022/02/07 12:33:55;;;;;;;315.15;95.38;;;;;;;;;;5074805;28;20199;-72
2022/02/07 12:36:22;;;;;;;377.65;139.30;;;;;;;;;;5065658;28;20305;-71
2022/02/07 12:38:52;;;;;;;363.08;103.97;;;;;;;;;;5073060;28;20294;-72
2022/02/07 12:41:21;;;;;;;352.40;106.63;;;;;;;;;;5058640;28;20203;-72
2022/02/07 12:44:04;;;;;;;360.67;121.18;;;;;;;;;;5059700;28;20457;-72
2022/02/07 12:46:48;;;;;;;373.45;115.78;;;;;;;;;;5072533;28;20218;-72
2022/02/07 12:49:23;;;;;;;339.90;93.40;;;;;;;;;;5062116;28;20214;-72
2022/02/07 12:51:55;;;;;;;348.53;92.77;;;;;;;;;;5056562;28;20590;-71
2022/02/07 12:54:26;;;;;;;16.20;3.00;;;;;;;;;;5056956;28;20755;-72
2022/02/07 12:57:00;;;;;;;6.00;2.00;;;;;;;;;;5055663;28;20745;-72
2022/02/07 12:59:29;;;;;;;5.47;3.20;;;;;;;;;;5060280;28;20541;-72
2022/02/07 13:01:58;;;;;;;6.07;1.73;;;;;;;;;;5066986;28;20461;-73
2022/02/07 13:04:27;;;;;;;14.00;1.67;;;;;;;;;;5070865;28;20737;-73
2022/02/07 13:06:55;;;;;;;7.10;2.37;;;;;;;;;;5096188;28;20554;-72
2022/02/07 13:09:25;;;;;;;348.13;133.45;;;;;;;;;;5095796;28;20501;-72
2022/02/07 13:12:01;;;;;;;14.90;3.37;;;;;;;;;;5075909;28;20756;-72
2022/02/07 13:14:33;;;;;;;8.47;1.90;;;;;;;;;;5077770;28;20440;-73
2022/02/07 13:17:03;;;;;;;6.40;2.17;;;;;;;;;;5066428;28;20484;-73
2022/02/07 13:19:38;;;;;;;10.93;3.63;;;;;;;;;;5068986;28;20490;-72
2022/02/07 13:22:07;;;;;;;10.33;2.37;;;;;;;;;;5070266;28;20461;-72
2022/02/07 13:24:41;;;;;;;8.73;1.30;;;;;;;;;;5064191;28;20456;-71
2022/02/07 13:27:14;;;;;;;17.33;3.33;;;;;;;;;;5063576;28;20469;-73
2022/02/07 13:29:46;;;;;;;9.67;3.17;;;;;;;;;;5076632;28;20447;-73
2022/02/07 13:32:14;;;;;;;17.40;2.10;;;;;;;;;;5076037;28;20460;-72
2022/02/07 13:34:51;;;;;;;5.37;2.20;;;;;;;;;;5076171;28;20467;-73
2022/02/07 13:37:29;;;;;;;6.27;3.13;;;;;;;;;;5077341;28;20487;-72
2022/02/07 13:40:00;;;;;;;6.47;1.87;;;;;;;;;;5065714;28;20537;-72
2022/02/07 13:42:34;;;;;;;10.00;2.30;;;;;;;;;;5071485;28;20489;-72
2022/02/07 13:45:04;;;;;;;17.00;3.93;;;;;;;;;;5070012;28;20487;-72
2022/02/07 13:47:35;;;;;;;7.80;1.73;;;;;;;;;;5065629;28;20465;-73
2022/02/07 13:50:15;;;;;;;3.50;2.00;;;;;;;;;;5073373;28;20469;-71
2022/02/07 13:52:48;;;;;;;12.63;8.83;;;;;;;;;;5072551;28;20475;-71
2022/02/07 13:55:19;;;;;;;22.07;10.30;;;;;;;;;;5072455;28;20522;-71
2022/02/07 13:58:06;;;;;;;5.93;3.87;;;;;;;;;;5071989;28;20544;-71
2022/02/07 14:00:42;;;;;;;2.63;1.40;;;;;;;;;;5059534;28;20483;-71
2022/02/07 14:03:13;;;;;;;5.30;1.77;;;;;;;;;;5072432;28;20759;-71
2022/02/07 14:05:49;;;;;;;19.20;17.70;;;;;;;;;;5065508;28;20460;-71
2022/02/07 14:08:17;;;;;;;5.37;1.83;;;;;;;;;;5071010;28;20456;-71
2022/02/07 14:10:50;;;;;;;5.83;2.10;;;;;;;;;;5075266;28;20773;-70
2022/02/07 14:13:27;;;;;;;9.10;1.37;;;;;;;;;;5072843;28;20449;-71
2022/02/07 14:16:06;;;;;;;5.43;2.77;;;;;;;;;;5076329;28;20451;-72
2022/02/07 14:18:37;;;;;;;4.83;1.73;;;;;;;;;;5073132;28;20557;-72
2022/02/07 14:21:09;;;;;;;6.90;6.30;;;;;;;;;;5067585;28;20547;-71
2022/02/07 14:23:38;;;;;;;5.60;1.53;;;;;;;;;;5063026;28;20734;-72
2022/02/07 14:26:14;;;;;;;10.17;8.87;;;;;;;;;;5070841;28;20482;-72
2022/02/07 14:28:53;;;;;;;6.13;1.73;;;;;;;;;;5070901;28;20533;-72
2022/02/07 14:31:37;;;;;;;10.77;4.67;;;;;;;;;;5072708;28;20452;-72
2022/02/07 14:34:09;;;;;;;3.30;1.50;;;;;;;;;;5055182;28;20489;-71
2022/02/07 14:37:01;;;;;;;16.17;11.73;;;;;;;;;;5070854;28;21054;-72
2022/02/07 14:42:57;;;;;;;;;;;;;;;;;;;;;
2022/02/07 14:48:01;;;;;;;3.50;2.50;;;;;;;;;;5054866;28;20768;-74
2022/02/07 14:50:31;;;;;;;8.40;2.90;;;;;;;;;;5071374;28;20247;-72
2022/02/07 14:53:02;;;;;;;5.80;2.50;;;;;;;;;;5073386;28;20873;-73
2022/02/07 14:55:32;;;;;;;9.33;2.97;;;;;;;;;;5065360;28;20453;-72
2022/02/07 14:58:02;;;;;;;6.73;2.30;;;;;;;;;;5042057;28;20837;-73
2022/02/07 15:00:38;;;;;;;39.33;34.97;;;;;;;;;;5034584;28;20450;-73
2022/02/07 15:03:11;;;;;;;22.53;20.13;;;;;;;;;;5042376;28;20549;-73
2022/02/07 15:05:41;;;;;;;31.77;28.73;;;;;;;;;;5037598;28;20550;-73
2022/02/07 15:08:12;;;;;;;9.40;5.07;;;;;;;;;;5051217;28;20565;-73
2022/02/07 15:10:48;;;;;;;17.00;8.10;;;;;;;;;;5014199;28;20474;-73
2022/02/07 15:13:34;;;;;;;;;;;;;;;;;;;;;
2022/02/07 15:16:07;;;;;;;54.20;48.40;;;;;;;;;;5048688;28;20454;-74
2022/02/07 15:18:44;;;;;;;8.57;6.07;;;;;;;;;;5048129;28;20861;-73
2022/02/07 15:21:13;;;;;;;11.23;6.00;;;;;;;;;;5053458;28;20476;-73
2022/02/07 15:23:43;;;;;;;32.83;29.67;;;;;;;;;;5045861;28;20466;-73
2022/02/07 15:26:24;;;;;;;16.37;12.47;;;;;;;;;;5034369;28;20462;-73
2022/02/07 15:28:59;;;;;;;42.73;36.43;;;;;;;;;;5035701;28;20450;-72
2022/02/07 15:31:32;;;;;;;43.60;38.90;;;;;;;;;;5036785;28;20496;-73
2022/02/07 15:34:13;;;;;;;25.17;22.80;;;;;;;;;;5037037;28;20449;-72
2022/02/07 15:36:41;;;;;;;10.87;8.10;;;;;;;;;;5036515;28;20474;-73
2022/02/07 15:42:08;;;;;;;12.20;11.10;;;;;;;;;;5036717;28;20451;-72
2022/02/07 15:48:36;;;;;;;11.23;7.80;;;;;;;;;;5040466;28;20564;-73
2022/02/07 15:51:18;;;;;;;11.10;6.00;;;;;;;;;;5052711;28;20465;-74
2022/02/07 15:53:55;;;;;;;34.57;31.17;;;;;;;;;;5048480;28;20453;-73
2022/02/07 15:56:25;;;;;;;53.50;47.80;;;;;;;;;;5056245;28;20738;-73
2022/02/07 15:58:54;;;;;;;11.97;9.33;;;;;;;;;;5055672;28;20500;-73
2022/02/07 16:01:34;;;;;;;60.70;55.13;;;;;;;;;;5055366;28;20562;-73
2022/02/07 16:04:05;;;;;;;14.23;5.40;;;;;;;;;;5048030;28;20886;-73
2022/02/07 16:06:34;;;;;;;8.47;5.90;;;;;;;;;;5035851;28;20480;-72
2022/02/07 16:09:04;;;;;;;20.30;8.40;;;;;;;;;;5045760;28;20882;-73
2022/02/07 16:11:47;;;;;;;23.23;21.63;;;;;;;;;;5048115;28;20572;-73
2022/02/07 16:14:29;;;;;;;6.70;5.07;;;;;;;;;;5043504;28;20488;-73
2022/02/07 16:17:08;;;;;;;6.93;5.00;;;;;;;;;;5052239;28;20563;-73
2022/02/07 16:19:36;;;;;;;11.40;7.07;;;;;;;;;;5050774;28;20478;-73
2022/02/07 16:22:15;;;;;;;50.83;46.57;;;;;;;;;;5036001;28;20494;-73
2022/02/07 16:25:14;;;;;;;11.23;10.00;;;;;;;;;;5036240;28;20917;-72
2022/02/07 16:27:45;;;;;;;16.97;15.30;;;;;;;;;;5036249;28;20469;-72
2022/02/07 16:32:59;;;;;;;13.57;6.70;;;;;;;;;;5043011;28;20465;-72
2022/02/07 16:35:27;;;;;;;13.53;12.57;;;;;;;;;;5054634;28;20460;-73
2022/02/07 16:38:01;;;;;;;10.63;4.63;;;;;;;;;;5054208;28;21129;-73
2022/02/07 16:40:43;;;;;;;7.90;4.70;;;;;;;;;;5056251;28;20457;-72
2022/02/07 16:43:19;;;;;;;12.13;6.23;;;;;;;;;;5055652;28;20468;-74
2022/02/07 16:46:27;;;;;;;9.27;5.87;;;;;;;;;;5055687;28;20464;-74
2022/02/07 16:48:58;;;;;;;12.30;4.30;;;;;;;;;;5036889;28;20462;-72
2022/02/07 16:51:34;;;;;;;8.80;5.90;;;;;;;;;;5037520;28;20454;-72
2022/02/07 16:54:18;;;;;;;19.73;13.77;;;;;;;;;;5038499;28;20910;-72
2022/02/07 16:56:57;;;;;;;5.67;4.77;;;;;;;;;;5054402;28;20449;-72
2022/02/07 16:59:42;;;;;;;5.37;4.40;;;;;;;;;;5047321;28;20462;-72
2022/02/07 17:02:22;;;;;;;7.60;4.17;;;;;;;;;;5045294;28;20541;-72
2022/02/07 17:04:59;;;;;;;10.47;5.77;;;;;;;;;;5039394;28;20469;-72
2022/02/07 17:07:39;;;;;;;10.70;3.90;;;;;;;;;;5043826;28;21131;-73
2022/02/07 17:10:10;;;;;;;8.53;7.43;;;;;;;;;;5038530;28;20489;-74
2022/02/07 17:12:37;;;;;;;7.07;3.07;;;;;;;;;;5052731;28;20445;-73
2022/02/07 17:15:20;;;;;;;6.53;3.63;;;;;;;;;;5051154;28;20513;-73